sensor_id;sensor_type;location;lat;lon;timestamp;P1;durP1;ratioP1;P2;durP2;ratioP2
11398;SDS011;5755;48.116;11.608;2022-08-11T00:02:26;5.47;;;2.88;;
11398;SDS011;5755;48.116;11.608;2022-08-11T00:05:00;4.35;;;2.88;;
11398;SDS011;5755;48.116;11.608;2022-08-11T00:07:41;5.40;;;2.70;;
11398;SDS011;5755;48.116;11.608;2022-08-11T00:10:11;8.15;;;3.10;;
11398;SDS011;5755;48.116;11.608;2022-08-11T00:12:40;7.15;;;3.05;;
11398;SDS011;5755;48.116;11.608;2022-08-11T00:15:09;6.15;;;2.92;;
11398;SDS011;5755;48.116;11.608;2022-08-11T00:17:37;3.92;;;2.80;;
11398;SDS011;5755;48.116;11.608;2022-08-11T00:20:05;5.45;;;2.90;;
11398;SDS011;5755;48.116;11.608;2022-08-11T00:22:35;3.13;;;2.78;;
11398;SDS011;5755;48.116;11.608;2022-08-11T00:25:07;6.40;;;3.03;;
11398;SDS011;5755;48.116;11.608;2022-08-11T00:27:37;6.95;;;2.90;;
11398;SDS011;5755;48.116;11.608;2022-08-11T00:30:06;3.85;;;2.65;;
11398;SDS011;5755;48.116;11.608;2022-08-11T00:32:41;3.13;;;2.80;;
11398;SDS011;5755;48.116;11.608;2022-08-11T00:35:10;6.05;;;2.95;;
11398;SDS011;5755;48.116;11.608;2022-08-11T00:37:38;4.00;;;3.00;;
11398;SDS011;5755;48.116;11.608;2022-08-11T00:40:14;4.25;;;3.17;;
11398;SDS011;5755;48.116;11.608;2022-08-11T00:42:52;5.95;;;3.22;;
11398;SDS011;5755;48.116;11.608;2022-08-11T00:45:32;6.15;;;3.15;;
11398;SDS011;5755;48.116;11.608;2022-08-11T00:48:04;7.03;;;3.15;;
11398;SDS011;5755;48.116;11.608;2022-08-11T00:50:41;6.55;;;3.03;;
11398;SDS011;5755;48.116;11.608;2022-08-11T00:53:25;4.38;;;2.72;;
11398;SDS011;5755;48.116;11.608;2022-08-11T00:56:10;8.20;;;3.05;;
11398;SDS011;5755;48.116;11.608;2022-08-11T00:59:20;3.42;;;2.88;;
11398;SDS011;5755;48.116;11.608;2022-08-11T01:02:08;3.35;;;2.95;;
11398;SDS011;5755;48.116;11.608;2022-08-11T01:14:15;4.50;;;2.90;;
11398;SDS011;5755;48.116;11.608;2022-08-11T01:17:41;5.95;;;2.75;;
11398;SDS011;5755;48.116;11.608;2022-08-11T01:20:46;4.88;;;3.15;;
11398;SDS011;5755;48.116;11.608;2022-08-11T01:27:08;5.57;;;3.35;;
11398;SDS011;5755;48.116;11.608;2022-08-11T01:30:04;2.92;;;2.63;;
11398;SDS011;5755;48.116;11.608;2022-08-11T01:32:55;3.00;;;2.67;;
11398;SDS011;5755;48.116;11.608;2022-08-11T01:36:10;3.83;;;2.65;;
11398;SDS011;5755;48.116;11.608;2022-08-11T01:39:20;5.40;;;3.22;;
11398;SDS011;5755;48.116;11.608;2022-08-11T01:42:34;4.07;;;3.10;;
11398;SDS011;5755;48.116;11.608;2022-08-11T01:45:41;4.03;;;3.03;;
11398;SDS011;5755;48.116;11.608;2022-08-11T01:48:18;5.85;;;3.20;;
11398;SDS011;5755;48.116;11.608;2022-08-11T01:51:00;4.97;;;2.80;;
11398;SDS011;5755;48.116;11.608;2022-08-11T01:53:38;6.07;;;3.03;;
11398;SDS011;5755;48.116;11.608;2022-08-11T01:56:20;4.53;;;3.30;;
11398;SDS011;5755;48.116;11.608;2022-08-11T01:58:57;5.53;;;3.05;;
11398;SDS011;5755;48.116;11.608;2022-08-11T02:01:35;4.20;;;3.25;;
11398;SDS011;5755;48.116;11.608;2022-08-11T02:04:14;5.00;;;3.40;;
11398;SDS011;5755;48.116;11.608;2022-08-11T02:06:52;3.78;;;3.38;;
11398;SDS011;5755;48.116;11.608;2022-08-11T02:09:40;3.53;;;3.03;;
11398;SDS011;5755;48.116;11.608;2022-08-11T02:12:22;4.20;;;3.45;;
11398;SDS011;5755;48.116;11.608;2022-08-11T02:15:07;6.10;;;3.00;;
11398;SDS011;5755;48.116;11.608;2022-08-11T02:17:44;4.55;;;3.15;;
11398;SDS011;5755;48.116;11.608;2022-08-11T02:20:18;7.95;;;3.17;;
11398;SDS011;5755;48.116;11.608;2022-08-11T02:23:10;4.45;;;3.15;;
11398;SDS011;5755;48.116;11.608;2022-08-11T02:26:07;7.80;;;3.33;;
11398;SDS011;5755;48.116;11.608;2022-08-11T02:28:41;6.82;;;3.70;;
11398;SDS011;5755;48.116;11.608;2022-08-11T02:31:16;3.70;;;3.40;;
11398;SDS011;5755;48.116;11.608;2022-08-11T02:34:08;4.45;;;3.20;;
11398;SDS011;5755;48.116;11.608;2022-08-11T02:36:41;4.75;;;3.38;;
11398;SDS011;5755;48.116;11.608;2022-08-11T02:39:14;4.00;;;3.33;;
11398;SDS011;5755;48.116;11.608;2022-08-11T02:41:49;4.95;;;3.00;;
11398;SDS011;5755;48.116;11.608;2022-08-11T02:44:42;6.38;;;3.45;;
11398;SDS011;5755;48.116;11.608;2022-08-11T02:47:17;4.18;;;3.20;;
11398;SDS011;5755;48.116;11.608;2022-08-11T02:49:58;4.38;;;3.15;;
11398;SDS011;5755;48.116;11.608;2022-08-11T02:52:35;5.78;;;3.45;;
11398;SDS011;5755;48.116;11.608;2022-08-11T02:55:17;4.22;;;3.38;;
11398;SDS011;5755;48.116;11.608;2022-08-11T02:57:51;3.90;;;3.42;;
11398;SDS011;5755;48.116;11.608;2022-08-11T03:00:23;3.42;;;3.13;;
11398;SDS011;5755;48.116;11.608;2022-08-11T03:02:54;5.95;;;3.40;;
11398;SDS011;5755;48.116;11.608;2022-08-11T03:05:33;4.57;;;3.67;;
11398;SDS011;5755;48.116;11.608;2022-08-11T03:08:10;5.88;;;3.20;;
11398;SDS011;5755;48.116;11.608;2022-08-11T03:10:47;4.00;;;3.50;;
11398;SDS011;5755;48.116;11.608;2022-08-11T03:13:35;7.50;;;3.97;;
11398;SDS011;5755;48.116;11.608;2022-08-11T03:16:25;4.25;;;3.47;;
11398;SDS011;5755;48.116;11.608;2022-08-11T03:19:15;4.00;;;3.60;;
11398;SDS011;5755;48.116;11.608;2022-08-11T03:21:52;4.68;;;4.03;;
11398;SDS011;5755;48.116;11.608;2022-08-11T03:24:28;6.90;;;3.47;;
11398;SDS011;5755;48.116;11.608;2022-08-11T03:27:02;6.05;;;3.50;;
11398;SDS011;5755;48.116;11.608;2022-08-11T03:29:38;3.85;;;3.45;;
11398;SDS011;5755;48.116;11.608;2022-08-11T03:32:18;3.63;;;3.30;;
11398;SDS011;5755;48.116;11.608;2022-08-11T03:34:51;4.80;;;3.35;;
11398;SDS011;5755;48.116;11.608;2022-08-11T03:40:32;4.80;;;3.80;;
11398;SDS011;5755;48.116;11.608;2022-08-11T03:43:41;8.70;;;4.50;;
11398;SDS011;5755;48.116;11.608;2022-08-11T03:46:26;4.60;;;3.70;;
11398;SDS011;5755;48.116;11.608;2022-08-11T03:49:04;6.15;;;3.78;;
11398;SDS011;5755;48.116;11.608;2022-08-11T03:51:47;5.75;;;3.95;;
11398;SDS011;5755;48.116;11.608;2022-08-11T03:54:23;4.85;;;4.28;;
11398;SDS011;5755;48.116;11.608;2022-08-11T04:00:05;4.78;;;4.07;;
11398;SDS011;5755;48.116;11.608;2022-08-11T04:02:51;8.85;;;4.30;;
11398;SDS011;5755;48.116;11.608;2022-08-11T04:15:11;6.72;;;3.90;;
11398;SDS011;5755;48.116;11.608;2022-08-11T04:18:21;4.40;;;3.83;;
11398;SDS011;5755;48.116;11.608;2022-08-11T04:24:21;5.78;;;4.20;;
11398;SDS011;5755;48.116;11.608;2022-08-11T04:27:08;5.60;;;4.15;;
11398;SDS011;5755;48.116;11.608;2022-08-11T04:29:56;4.65;;;4.22;;
11398;SDS011;5755;48.116;11.608;2022-08-11T04:36:01;5.95;;;4.05;;
11398;SDS011;5755;48.116;11.608;2022-08-11T04:38:48;7.30;;;4.53;;
11398;SDS011;5755;48.116;11.608;2022-08-11T04:44:56;6.72;;;4.50;;
11398;SDS011;5755;48.116;11.608;2022-08-11T04:47:50;4.53;;;4.10;;
11398;SDS011;5755;48.116;11.608;2022-08-11T04:51:00;5.38;;;4.50;;
11398;SDS011;5755;48.116;11.608;2022-08-11T04:54:04;5.32;;;4.18;;
11398;SDS011;5755;48.116;11.608;2022-08-11T04:56:58;6.30;;;4.63;;
11398;SDS011;5755;48.116;11.608;2022-08-11T04:59:57;6.07;;;4.40;;
11398;SDS011;5755;48.116;11.608;2022-08-11T05:09:20;6.65;;;4.55;;
11398;SDS011;5755;48.116;11.608;2022-08-11T05:12:08;8.52;;;4.40;;
11398;SDS011;5755;48.116;11.608;2022-08-11T05:14:48;6.95;;;4.50;;
11398;SDS011;5755;48.116;11.608;2022-08-11T05:17:36;6.90;;;4.20;;
11398;SDS011;5755;48.116;11.608;2022-08-11T05:20:23;6.75;;;4.53;;
11398;SDS011;5755;48.116;11.608;2022-08-11T05:23:09;5.75;;;4.45;;
11398;SDS011;5755;48.116;11.608;2022-08-11T05:26:05;6.78;;;4.28;;
11398;SDS011;5755;48.116;11.608;2022-08-11T05:29:00;5.75;;;4.38;;
11398;SDS011;5755;48.116;11.608;2022-08-11T05:31:49;6.35;;;4.10;;
11398;SDS011;5755;48.116;11.608;2022-08-11T05:34:41;4.50;;;3.60;;
11398;SDS011;5755;48.116;11.608;2022-08-11T05:37:18;7.43;;;4.40;;
11398;SDS011;5755;48.116;11.608;2022-08-11T05:39:49;5.85;;;4.35;;
11398;SDS011;5755;48.116;11.608;2022-08-11T05:42:41;6.05;;;4.30;;
11398;SDS011;5755;48.116;11.608;2022-08-11T05:45:31;7.50;;;4.22;;
11398;SDS011;5755;48.116;11.608;2022-08-11T05:48:17;5.05;;;4.13;;
11398;SDS011;5755;48.116;11.608;2022-08-11T05:51:03;10.70;;;4.00;;
11398;SDS011;5755;48.116;11.608;2022-08-11T05:53:50;5.35;;;4.38;;
11398;SDS011;5755;48.116;11.608;2022-08-11T05:56:41;7.25;;;4.35;;
11398;SDS011;5755;48.116;11.608;2022-08-11T05:59:13;5.93;;;4.25;;
11398;SDS011;5755;48.116;11.608;2022-08-11T06:01:42;11.38;;;4.10;;
11398;SDS011;5755;48.116;11.608;2022-08-11T06:04:13;4.38;;;3.97;;
11398;SDS011;5755;48.116;11.608;2022-08-11T06:06:55;4.78;;;4.30;;
11398;SDS011;5755;48.116;11.608;2022-08-11T06:09:24;6.75;;;4.28;;
11398;SDS011;5755;48.116;11.608;2022-08-11T06:11:53;5.95;;;4.20;;
11398;SDS011;5755;48.116;11.608;2022-08-11T06:14:30;4.15;;;3.70;;
11398;SDS011;5755;48.116;11.608;2022-08-11T06:16:59;6.00;;;3.92;;
11398;SDS011;5755;48.116;11.608;2022-08-11T06:19:33;6.72;;;4.22;;
11398;SDS011;5755;48.116;11.608;2022-08-11T06:22:02;4.95;;;4.20;;
11398;SDS011;5755;48.116;11.608;2022-08-11T06:24:30;7.72;;;4.05;;
11398;SDS011;5755;48.116;11.608;2022-08-11T06:26:59;4.68;;;4.00;;
11398;SDS011;5755;48.116;11.608;2022-08-11T06:29:30;5.25;;;4.00;;
11398;SDS011;5755;48.116;11.608;2022-08-11T06:31:59;6.38;;;3.72;;
11398;SDS011;5755;48.116;11.608;2022-08-11T06:34:32;12.80;;;4.15;;
11398;SDS011;5755;48.116;11.608;2022-08-11T06:37:12;4.85;;;3.92;;
11398;SDS011;5755;48.116;11.608;2022-08-11T06:39:46;4.35;;;3.70;;
11398;SDS011;5755;48.116;11.608;2022-08-11T06:42:27;6.82;;;4.10;;
11398;SDS011;5755;48.116;11.608;2022-08-11T06:45:07;6.05;;;3.78;;
11398;SDS011;5755;48.116;11.608;2022-08-11T06:47:42;3.67;;;3.28;;
11398;SDS011;5755;48.116;11.608;2022-08-11T06:50:14;7.10;;;3.60;;
11398;SDS011;5755;48.116;11.608;2022-08-11T06:53:04;6.35;;;3.58;;
11398;SDS011;5755;48.116;11.608;2022-08-11T06:55:34;6.10;;;3.80;;
11398;SDS011;5755;48.116;11.608;2022-08-11T06:58:21;4.95;;;3.58;;
11398;SDS011;5755;48.116;11.608;2022-08-11T07:01:11;6.72;;;4.03;;
11398;SDS011;5755;48.116;11.608;2022-08-11T07:03:42;6.22;;;3.88;;
11398;SDS011;5755;48.116;11.608;2022-08-11T07:09:19;5.43;;;3.33;;
11398;SDS011;5755;48.116;11.608;2022-08-11T07:12:37;6.85;;;3.65;;
11398;SDS011;5755;48.116;11.608;2022-08-11T07:15:25;4.18;;;3.53;;
11398;SDS011;5755;48.116;11.608;2022-08-11T07:21:20;7.85;;;3.47;;
11398;SDS011;5755;48.116;11.608;2022-08-11T07:24:10;5.32;;;3.67;;
11398;SDS011;5755;48.116;11.608;2022-08-11T07:26:58;4.93;;;3.40;;
11398;SDS011;5755;48.116;11.608;2022-08-11T07:29:45;5.72;;;3.58;;
11398;SDS011;5755;48.116;11.608;2022-08-11T07:32:16;6.70;;;3.55;;
11398;SDS011;5755;48.116;11.608;2022-08-11T07:34:51;4.63;;;3.50;;
11398;SDS011;5755;48.116;11.608;2022-08-11T07:37:28;6.38;;;3.67;;
11398;SDS011;5755;48.116;11.608;2022-08-11T07:39:57;5.00;;;3.53;;
11398;SDS011;5755;48.116;11.608;2022-08-11T07:42:30;5.15;;;3.50;;
11398;SDS011;5755;48.116;11.608;2022-08-11T07:44:59;9.13;;;3.65;;
11398;SDS011;5755;48.116;11.608;2022-08-11T07:47:47;5.00;;;3.70;;
11398;SDS011;5755;48.116;11.608;2022-08-11T07:50:34;4.15;;;3.65;;
11398;SDS011;5755;48.116;11.608;2022-08-11T07:53:22;4.35;;;3.42;;
11398;SDS011;5755;48.116;11.608;2022-08-11T07:55:50;4.00;;;3.17;;
11398;SDS011;5755;48.116;11.608;2022-08-11T07:58:20;5.82;;;3.05;;
11398;SDS011;5755;48.116;11.608;2022-08-11T08:01:05;5.72;;;3.35;;
11398;SDS011;5755;48.116;11.608;2022-08-11T08:03:52;3.78;;;3.42;;
11398;SDS011;5755;48.116;11.608;2022-08-11T08:06:42;6.15;;;3.33;;
11398;SDS011;5755;48.116;11.608;2022-08-11T08:09:28;6.30;;;3.28;;
11398;SDS011;5755;48.116;11.608;2022-08-11T08:12:34;8.00;;;3.50;;
11398;SDS011;5755;48.116;11.608;2022-08-11T08:15:22;3.72;;;3.30;;
11398;SDS011;5755;48.116;11.608;2022-08-11T08:18:10;3.92;;;3.45;;
11398;SDS011;5755;48.116;11.608;2022-08-11T08:20:39;4.22;;;3.33;;
11398;SDS011;5755;48.116;11.608;2022-08-11T08:23:12;4.97;;;3.25;;
11398;SDS011;5755;48.116;11.608;2022-08-11T08:25:40;5.15;;;3.63;;
11398;SDS011;5755;48.116;11.608;2022-08-11T08:28:09;4.80;;;3.28;;
11398;SDS011;5755;48.116;11.608;2022-08-11T08:30:40;4.65;;;3.55;;
11398;SDS011;5755;48.116;11.608;2022-08-11T08:33:16;6.97;;;3.78;;
11398;SDS011;5755;48.116;11.608;2022-08-11T08:35:46;6.10;;;3.33;;
11398;SDS011;5755;48.116;11.608;2022-08-11T08:38:16;3.72;;;3.03;;
11398;SDS011;5755;48.116;11.608;2022-08-11T08:40:44;4.65;;;3.40;;
11398;SDS011;5755;48.116;11.608;2022-08-11T08:43:17;8.00;;;3.30;;
11398;SDS011;5755;48.116;11.608;2022-08-11T08:45:44;10.27;;;3.28;;
11398;SDS011;5755;48.116;11.608;2022-08-11T08:48:12;5.53;;;3.20;;
11398;SDS011;5755;48.116;11.608;2022-08-11T08:50:54;6.03;;;2.92;;
11398;SDS011;5755;48.116;11.608;2022-08-11T08:53:50;4.35;;;2.80;;
11398;SDS011;5755;48.116;11.608;2022-08-11T08:56:18;4.80;;;2.90;;
11398;SDS011;5755;48.116;11.608;2022-08-11T08:58:51;6.22;;;2.90;;
11398;SDS011;5755;48.116;11.608;2022-08-11T09:01:22;4.28;;;3.13;;
11398;SDS011;5755;48.116;11.608;2022-08-11T09:03:52;3.40;;;3.10;;
11398;SDS011;5755;48.116;11.608;2022-08-11T09:06:29;4.20;;;2.92;;
11398;SDS011;5755;48.116;11.608;2022-08-11T09:08:58;3.47;;;3.17;;
11398;SDS011;5755;48.116;11.608;2022-08-11T09:11:25;5.78;;;3.00;;
11398;SDS011;5755;48.116;11.608;2022-08-11T09:14:10;5.32;;;3.15;;
11398;SDS011;5755;48.116;11.608;2022-08-11T09:16:38;4.10;;;2.83;;
11398;SDS011;5755;48.116;11.608;2022-08-11T09:19:05;4.53;;;3.55;;
11398;SDS011;5755;48.116;11.608;2022-08-11T09:21:33;6.53;;;3.30;;
11398;SDS011;5755;48.116;11.608;2022-08-11T09:24:06;4.95;;;3.13;;
11398;SDS011;5755;48.116;11.608;2022-08-11T09:26:51;7.15;;;3.70;;
11398;SDS011;5755;48.116;11.608;2022-08-11T09:29:29;6.22;;;3.50;;
11398;SDS011;5755;48.116;11.608;2022-08-11T09:31:58;6.80;;;3.67;;
11398;SDS011;5755;48.116;11.608;2022-08-11T09:34:25;6.07;;;3.13;;
11398;SDS011;5755;48.116;11.608;2022-08-11T09:36:53;5.45;;;3.92;;
11398;SDS011;5755;48.116;11.608;2022-08-11T09:39:39;4.00;;;3.70;;
11398;SDS011;5755;48.116;11.608;2022-08-11T09:42:28;6.05;;;3.60;;
11398;SDS011;5755;48.116;11.608;2022-08-11T09:45:10;8.15;;;3.70;;
11398;SDS011;5755;48.116;11.608;2022-08-11T09:47:37;4.72;;;3.30;;
11398;SDS011;5755;48.116;11.608;2022-08-11T09:50:10;3.92;;;3.53;;
11398;SDS011;5755;48.116;11.608;2022-08-11T09:52:41;4.85;;;3.75;;
11398;SDS011;5755;48.116;11.608;2022-08-11T09:55:14;4.25;;;3.42;;
11398;SDS011;5755;48.116;11.608;2022-08-11T09:57:59;7.05;;;3.45;;
11398;SDS011;5755;48.116;11.608;2022-08-11T10:00:42;5.10;;;3.75;;
11398;SDS011;5755;48.116;11.608;2022-08-11T10:03:11;4.82;;;3.50;;
11398;SDS011;5755;48.116;11.608;2022-08-11T10:05:42;4.65;;;3.75;;
11398;SDS011;5755;48.116;11.608;2022-08-11T10:11:21;3.85;;;3.45;;
11398;SDS011;5755;48.116;11.608;2022-08-11T10:13:50;5.40;;;3.60;;
11398;SDS011;5755;48.116;11.608;2022-08-11T10:16:40;3.70;;;3.40;;
11398;SDS011;5755;48.116;11.608;2022-08-11T10:19:08;6.75;;;3.40;;
11398;SDS011;5755;48.116;11.608;2022-08-11T10:21:36;4.80;;;3.30;;
11398;SDS011;5755;48.116;11.608;2022-08-11T10:24:10;4.72;;;3.40;;
11398;SDS011;5755;48.116;11.608;2022-08-11T10:27:11;5.03;;;3.40;;
11398;SDS011;5755;48.116;11.608;2022-08-11T10:29:39;9.25;;;3.40;;
11398;SDS011;5755;48.116;11.608;2022-08-11T10:32:25;5.43;;;3.53;;
11398;SDS011;5755;48.116;11.608;2022-08-11T10:35:12;5.88;;;3.58;;
11398;SDS011;5755;48.116;11.608;2022-08-11T10:37:41;5.50;;;3.30;;
11398;SDS011;5755;48.116;11.608;2022-08-11T10:40:12;4.90;;;3.20;;
11398;SDS011;5755;48.116;11.608;2022-08-11T10:42:50;5.38;;;3.78;;
11398;SDS011;5755;48.116;11.608;2022-08-11T10:45:32;6.90;;;3.78;;
11398;SDS011;5755;48.116;11.608;2022-08-11T10:48:15;6.38;;;3.20;;
11398;SDS011;5755;48.116;11.608;2022-08-11T10:53:40;4.72;;;3.15;;
11398;SDS011;5755;48.116;11.608;2022-08-11T10:56:26;3.85;;;3.30;;
11398;SDS011;5755;48.116;11.608;2022-08-11T10:59:14;3.75;;;3.45;;
11398;SDS011;5755;48.116;11.608;2022-08-11T11:01:46;6.30;;;3.30;;
11398;SDS011;5755;48.116;11.608;2022-08-11T11:04:23;7.63;;;4.20;;
11398;SDS011;5755;48.116;11.608;2022-08-11T11:06:55;4.22;;;3.10;;
11398;SDS011;5755;48.116;11.608;2022-08-11T11:09:29;5.15;;;3.20;;
11398;SDS011;5755;48.116;11.608;2022-08-11T11:11:58;5.85;;;3.25;;
11398;SDS011;5755;48.116;11.608;2022-08-11T11:15:00;4.25;;;3.00;;
11398;SDS011;5755;48.116;11.608;2022-08-11T11:17:50;3.33;;;3.00;;
11398;SDS011;5755;48.116;11.608;2022-08-11T11:20:22;3.42;;;2.83;;
11398;SDS011;5755;48.116;11.608;2022-08-11T11:22:55;3.67;;;2.78;;
11398;SDS011;5755;48.116;11.608;2022-08-11T11:25:33;5.55;;;2.95;;
11398;SDS011;5755;48.116;11.608;2022-08-11T11:28:18;4.13;;;;;
11398;SDS011;5755;48.116;11.608;2022-08-11T11:30:59;6.53;;;2.80;;
11398;SDS011;5755;48.116;11.608;2022-08-11T11:33:39;2.92;;;2.63;;
11398;SDS011;5755;48.116;11.608;2022-08-11T11:36:36;2.80;;;2.60;;
11398;SDS011;5755;48.116;11.608;2022-08-11T11:39:10;4.07;;;2.60;;
11398;SDS011;5755;48.116;11.608;2022-08-11T11:41:36;2.95;;;2.63;;
11398;SDS011;5755;48.116;11.608;2022-08-11T11:44:04;3.38;;;2.50;;
11398;SDS011;5755;48.116;11.608;2022-08-11T11:46:33;4.80;;;2.63;;
11398;SDS011;5755;48.116;11.608;2022-08-11T11:49:00;5.82;;;2.60;;
11398;SDS011;5755;48.116;11.608;2022-08-11T11:51:31;6.80;;;2.50;;
11398;SDS011;5755;48.116;11.608;2022-08-11T11:53:59;7.18;;;2.75;;
11398;SDS011;5755;48.116;11.608;2022-08-11T11:56:27;3.67;;;2.53;;
11398;SDS011;5755;48.116;11.608;2022-08-11T11:58:54;2.70;;;2.50;;
11398;SDS011;5755;48.116;11.608;2022-08-11T12:01:41;2.72;;;2.38;;
11398;SDS011;5755;48.116;11.608;2022-08-11T12:04:10;4.03;;;2.45;;
11398;SDS011;5755;48.116;11.608;2022-08-11T12:06:40;3.53;;;2.75;;
11398;SDS011;5755;48.116;11.608;2022-08-11T12:09:08;3.88;;;2.58;;
11398;SDS011;5755;48.116;11.608;2022-08-11T12:11:40;6.90;;;2.40;;
11398;SDS011;5755;48.116;11.608;2022-08-11T12:14:24;2.67;;;2.47;;
11398;SDS011;5755;48.116;11.608;2022-08-11T12:16:54;6.68;;;2.67;;
11398;SDS011;5755;48.116;11.608;2022-08-11T12:19:22;4.55;;;2.40;;
11398;SDS011;5755;48.116;11.608;2022-08-11T12:21:58;6.35;;;2.80;;
11398;SDS011;5755;48.116;11.608;2022-08-11T12:24:54;9.98;;;2.85;;
11398;SDS011;5755;48.116;11.608;2022-08-11T12:27:39;4.32;;;2.33;;
11398;SDS011;5755;48.116;11.608;2022-08-11T12:30:06;2.50;;;2.30;;
11398;SDS011;5755;48.116;11.608;2022-08-11T12:32:35;4.85;;;2.88;;
11398;SDS011;5755;48.116;11.608;2022-08-11T12:35:04;2.85;;;2.53;;
11398;SDS011;5755;48.116;11.608;2022-08-11T12:37:34;5.32;;;2.38;;
11398;SDS011;5755;48.116;11.608;2022-08-11T12:40:04;3.00;;;2.55;;
11398;SDS011;5755;48.116;11.608;2022-08-11T12:42:52;4.72;;;2.50;;
11398;SDS011;5755;48.116;11.608;2022-08-11T12:45:46;3.33;;;2.60;;
11398;SDS011;5755;48.116;11.608;2022-08-11T12:48:25;6.32;;;2.42;;
11398;SDS011;5755;48.116;11.608;2022-08-11T12:51:18;4.30;;;2.42;;
11398;SDS011;5755;48.116;11.608;2022-08-11T12:54:11;2.50;;;2.30;;
11398;SDS011;5755;48.116;11.608;2022-08-11T12:56:41;4.93;;;2.30;;
11398;SDS011;5755;48.116;11.608;2022-08-11T12:59:28;6.53;;;2.55;;
11398;SDS011;5755;48.116;11.608;2022-08-11T13:02:15;3.17;;;2.20;;
11398;SDS011;5755;48.116;11.608;2022-08-11T13:05:02;3.65;;;2.10;;
11398;SDS011;5755;48.116;11.608;2022-08-11T13:07:31;3.67;;;2.15;;
11398;SDS011;5755;48.116;11.608;2022-08-11T13:09:59;3.83;;;2.40;;
11398;SDS011;5755;48.116;11.608;2022-08-11T13:12:28;5.38;;;2.47;;
11398;SDS011;5755;48.116;11.608;2022-08-11T13:15:21;5.18;;;2.20;;
11398;SDS011;5755;48.116;11.608;2022-08-11T13:17:59;5.22;;;2.53;;
11398;SDS011;5755;48.116;11.608;2022-08-11T13:20:30;6.50;;;2.47;;
11398;SDS011;5755;48.116;11.608;2022-08-11T13:22:57;4.93;;;2.53;;
11398;SDS011;5755;48.116;11.608;2022-08-11T13:25:35;2.20;;;2.00;;
11398;SDS011;5755;48.116;11.608;2022-08-11T13:28:11;5.25;;;2.42;;
11398;SDS011;5755;48.116;11.608;2022-08-11T13:30:53;4.03;;;2.17;;
11398;SDS011;5755;48.116;11.608;2022-08-11T13:33:41;2.70;;;2.13;;
11398;SDS011;5755;48.116;11.608;2022-08-11T13:36:12;3.65;;;2.15;;
11398;SDS011;5755;48.116;11.608;2022-08-11T13:38:43;3.72;;;2.38;;
11398;SDS011;5755;48.116;11.608;2022-08-11T13:41:10;3.85;;;2.10;;
11398;SDS011;5755;48.116;11.608;2022-08-11T13:43:55;3.00;;;2.17;;
11398;SDS011;5755;48.116;11.608;2022-08-11T13:46:22;3.95;;;2.35;;
11398;SDS011;5755;48.116;11.608;2022-08-11T13:48:53;4.15;;;2.30;;
11398;SDS011;5755;48.116;11.608;2022-08-11T13:51:23;2.90;;;2.28;;
11398;SDS011;5755;48.116;11.608;2022-08-11T13:53:59;4.38;;;2.30;;
11398;SDS011;5755;48.116;11.608;2022-08-11T13:56:28;6.32;;;2.35;;
11398;SDS011;5755;48.116;11.608;2022-08-11T13:58:59;3.50;;;2.40;;
11398;SDS011;5755;48.116;11.608;2022-08-11T14:01:29;3.33;;;2.28;;
11398;SDS011;5755;48.116;11.608;2022-08-11T14:04:00;3.30;;;2.10;;
11398;SDS011;5755;48.116;11.608;2022-08-11T14:06:36;2.67;;;2.17;;
11398;SDS011;5755;48.116;11.608;2022-08-11T14:09:06;4.50;;;2.20;;
11398;SDS011;5755;48.116;11.608;2022-08-11T14:11:34;5.38;;;2.30;;
11398;SDS011;5755;48.116;11.608;2022-08-11T14:14:21;2.17;;;2.03;;
11398;SDS011;5755;48.116;11.608;2022-08-11T14:16:51;3.80;;;2.08;;
11398;SDS011;5755;48.116;11.608;2022-08-11T14:19:23;3.45;;;2.40;;
11398;SDS011;5755;48.116;11.608;2022-08-11T14:21:53;5.30;;;2.40;;
11398;SDS011;5755;48.116;11.608;2022-08-11T14:24:33;4.15;;;2.20;;
11398;SDS011;5755;48.116;11.608;2022-08-11T14:27:05;4.55;;;2.47;;
11398;SDS011;5755;48.116;11.608;2022-08-11T14:29:36;4.18;;;2.30;;
11398;SDS011;5755;48.116;11.608;2022-08-11T14:32:06;3.05;;;2.20;;
11398;SDS011;5755;48.116;11.608;2022-08-11T14:34:35;5.93;;;2.25;;
11398;SDS011;5755;48.116;11.608;2022-08-11T14:37:07;3.65;;;2.17;;
11398;SDS011;5755;48.116;11.608;2022-08-11T14:39:39;2.38;;;2.17;;
11398;SDS011;5755;48.116;11.608;2022-08-11T14:42:11;5.68;;;4.40;;
11398;SDS011;5755;48.116;11.608;2022-08-11T14:45:00;2.78;;;1.95;;
11398;SDS011;5755;48.116;11.608;2022-08-11T14:48:03;6.05;;;4.70;;
11398;SDS011;5755;48.116;11.608;2022-08-11T14:50:34;6.60;;;2.50;;
11398;SDS011;5755;48.116;11.608;2022-08-11T14:53:04;6.93;;;6.32;;
11398;SDS011;5755;48.116;11.608;2022-08-11T14:55:35;3.60;;;3.25;;
11398;SDS011;5755;48.116;11.608;2022-08-11T14:58:23;4.07;;;2.38;;
11398;SDS011;5755;48.116;11.608;2022-08-11T15:00:53;2.45;;;1.92;;
11398;SDS011;5755;48.116;11.608;2022-08-11T15:03:23;6.05;;;5.43;;
11398;SDS011;5755;48.116;11.608;2022-08-11T15:05:51;3.42;;;2.20;;
11398;SDS011;5755;48.116;11.608;2022-08-11T15:08:22;3.63;;;2.30;;
11398;SDS011;5755;48.116;11.608;2022-08-11T15:11:10;2.88;;;2.30;;
11398;SDS011;5755;48.116;11.608;2022-08-11T15:13:53;3.58;;;2.00;;
11398;SDS011;5755;48.116;11.608;2022-08-11T15:16:21;4.18;;;2.08;;
11398;SDS011;5755;48.116;11.608;2022-08-11T15:19:06;3.53;;;2.30;;
11398;SDS011;5755;48.116;11.608;2022-08-11T15:21:36;3.33;;;2.05;;
11398;SDS011;5755;48.116;11.608;2022-08-11T15:24:21;6.05;;;2.20;;
11398;SDS011;5755;48.116;11.608;2022-08-11T15:26:49;5.55;;;2.15;;
11398;SDS011;5755;48.116;11.608;2022-08-11T15:29:35;3.55;;;2.10;;
11398;SDS011;5755;48.116;11.608;2022-08-11T15:32:21;10.65;;;8.20;;
11398;SDS011;5755;48.116;11.608;2022-08-11T15:35:07;2.28;;;2.05;;
11398;SDS011;5755;48.116;11.608;2022-08-11T15:37:54;4.38;;;2.25;;
11398;SDS011;5755;48.116;11.608;2022-08-11T15:40:32;3.17;;;2.10;;
11398;SDS011;5755;48.116;11.608;2022-08-11T15:43:23;4.25;;;2.47;;
11398;SDS011;5755;48.116;11.608;2022-08-11T15:46:12;4.28;;;2.33;;
11398;SDS011;5755;48.116;11.608;2022-08-11T15:48:43;5.15;;;2.15;;
11398;SDS011;5755;48.116;11.608;2022-08-11T15:51:15;4.07;;;2.30;;
11398;SDS011;5755;48.116;11.608;2022-08-11T15:53:48;5.43;;;2.20;;
11398;SDS011;5755;48.116;11.608;2022-08-11T15:56:18;2.53;;;2.20;;
11398;SDS011;5755;48.116;11.608;2022-08-11T15:58:49;2.75;;;2.10;;
11398;SDS011;5755;48.116;11.608;2022-08-11T16:01:35;3.47;;;2.10;;
11398;SDS011;5755;48.116;11.608;2022-08-11T16:04:33;3.70;;;2.10;;
11398;SDS011;5755;48.116;11.608;2022-08-11T16:07:06;3.78;;;2.08;;
11398;SDS011;5755;48.116;11.608;2022-08-11T16:09:36;2.03;;;1.90;;
11398;SDS011;5755;48.116;11.608;2022-08-11T16:12:19;3.80;;;2.00;;
11398;SDS011;5755;48.116;11.608;2022-08-11T16:14:50;3.72;;;2.17;;
11398;SDS011;5755;48.116;11.608;2022-08-11T16:17:38;4.95;;;2.00;;
11398;SDS011;5755;48.116;11.608;2022-08-11T16:20:09;4.22;;;2.35;;
11398;SDS011;5755;48.116;11.608;2022-08-11T16:22:41;4.35;;;2.10;;
11398;SDS011;5755;48.116;11.608;2022-08-11T16:25:12;2.95;;;1.90;;
11398;SDS011;5755;48.116;11.608;2022-08-11T16:27:49;4.35;;;2.15;;
11398;SDS011;5755;48.116;11.608;2022-08-11T16:30:17;2.35;;;2.00;;
11398;SDS011;5755;48.116;11.608;2022-08-11T16:32:47;3.10;;;2.10;;
11398;SDS011;5755;48.116;11.608;2022-08-11T16:35:17;5.20;;;2.20;;
11398;SDS011;5755;48.116;11.608;2022-08-11T16:38:04;3.38;;;2.25;;
11398;SDS011;5755;48.116;11.608;2022-08-11T16:40:53;5.15;;;2.20;;
11398;SDS011;5755;48.116;11.608;2022-08-11T16:43:24;2.35;;;2.13;;
11398;SDS011;5755;48.116;11.608;2022-08-11T16:46:11;3.25;;;2.22;;
11398;SDS011;5755;48.116;11.608;2022-08-11T16:48:57;2.95;;;2.13;;
11398;SDS011;5755;48.116;11.608;2022-08-11T16:51:27;2.42;;;2.13;;
11398;SDS011;5755;48.116;11.608;2022-08-11T16:53:54;5.43;;;2.20;;
11398;SDS011;5755;48.116;11.608;2022-08-11T16:56:24;4.93;;;2.33;;